Time;durP1;ratioP1;P1;durP2;ratioP2;P2;SDS_P1;SDS_P2;PMS_P1;PMS_P2;Temp;Humidity;BMP_temperature;BMP_pressure;BME280_temperature;BME280_humidity;BME280_pressure;Samples;Min_cycle;Max_cycle;Signal;HPM_P1;HPM_P2
2023/03/27 00:01:26;;;;;;;1.60;0.90;;;;;;;3.22;100.00;100749.56;6277030;28;20037;-71
2023/03/27 00:04:28;;;;;;;6.65;0.52;;;;;;;3.21;100.00;100751.31;6279231;28;20045;-71
2023/03/27 00:07:29;;;;;;;5.32;0.80;;;;;;;3.21;100.00;100753.06;6279331;28;20041;-71
2023/03/27 00:10:31;;;;;;;2.47;0.63;;;;;;;3.13;100.00;100761.00;6279423;28;20045;-71
2023/03/27 00:13:35;;;;;;;0.47;0.47;;;;;;;3.03;100.00;100772.50;6279382;28;20048;-71
2023/03/27 00:16:36;;;;;;;2.80;0.55;;;;;;;3.11;100.00;100770.59;6279184;28;20045;-71
2023/03/27 00:19:38;;;;;;;1.05;0.30;;;;;;;3.15;100.00;100772.22;6279175;28;20133;-71
2023/03/27 00:22:39;;;;;;;2.92;0.77;;;;;;;3.18;100.00;100784.28;6279290;28;20052;-71
2023/03/27 00:25:41;;;;;;;5.97;0.55;;;;;;;3.14;100.00;100787.84;6278839;28;20063;-71
2023/03/27 00:28:44;;;;;;;0.90;0.40;;;;;;;3.12;100.00;100792.22;6279163;28;20047;-71
2023/03/27 00:31:45;;;;;;;2.63;0.77;;;;;;;3.08;100.00;100788.81;6278538;28;20044;-71
2023/03/27 00:34:46;;;;;;;6.40;0.60;;;;;;;3.06;100.00;100793.19;6279166;28;20441;-71
2023/03/27 00:37:48;;;;;;;2.30;0.60;;;;;;;3.06;100.00;100790.59;6278740;28;20045;-71
2023/03/27 00:40:53;;;;;;;3.97;1.02;;;;;;;3.03;100.00;100795.84;6278976;28;20045;-71
2023/03/27 00:43:57;;;;;;;5.63;1.38;;;;;;;3.11;100.00;100800.88;6271209;28;20053;-71
2023/03/27 00:46:58;;;;;;;5.10;0.75;;;;;;;3.17;100.00;100811.13;6278257;28;20052;-71
2023/03/27 00:50:02;;;;;;;0.60;0.35;;;;;;;3.15;100.00;100818.13;6278684;28;20064;-71
2023/03/27 00:53:06;;;;;;;4.05;0.68;;;;;;;3.09;100.00;100823.41;6278399;28;20053;-71
2023/03/27 00:56:09;;;;;;;7.60;1.63;;;;;;;3.11;100.00;100822.50;6278630;28;20048;-71
2023/03/27 00:59:15;;;;;;;11.82;2.80;;;;;;;3.07;100.00;100822.59;6278249;28;20059;-72
2023/03/27 01:02:17;;;;;;;5.60;1.77;;;;;;;3.06;100.00;100824.34;6278193;28;20186;-71
2023/03/27 01:05:20;;;;;;;2.45;1.05;;;;;;;3.04;100.00;100827.00;6278006;28;20045;-71
2023/03/27 01:08:21;;;;;;;2.63;0.65;;;;;;;3.07;100.00;100820.00;6278089;28;20044;-71
2023/03/27 01:11:42;;;;;;;7.43;1.30;;;;;;;3.02;100.00;100828.75;6277072;28;20049;-71
2023/03/27 01:14:57;;;;;;;2.13;0.60;;;;;;;2.99;100.00;100830.56;6278382;28;20063;-71
2023/03/27 01:18:12;;;;;;;0.40;0.40;;;;;;;2.94;100.00;100840.19;6277614;28;20187;-71
2023/03/27 01:21:38;;;;;;;5.25;0.70;;;;;;;2.94;100.00;100842.78;6277952;28;20052;-72
2023/03/27 01:24:57;;;;;;;2.55;0.88;;;;;;;2.72;100.00;100842.34;6278069;28;20055;-71
2023/03/27 01:28:23;;;;;;;4.10;0.75;;;;;;;2.84;100.00;100838.66;6277462;28;20056;-71
2023/03/27 01:31:40;;;;;;;1.02;0.28;;;;;;;2.84;100.00;100844.69;6268819;28;20048;-71
2023/03/27 01:35:35;;;;;;;3.92;0.68;;;;;;;2.94;100.00;100853.16;6277348;28;20444;-72
2023/03/27 01:39:06;;;;;;;5.57;0.63;;;;;;;2.94;100.00;100859.19;6220301;28;20389;-71
2023/03/27 01:42:18;;;;;;;3.50;0.88;;;;;;;2.90;100.00;100864.47;6202491;28;20056;-71
2023/03/27 01:45:23;;;;;;;7.72;0.95;;;;;;;2.90;100.00;100867.06;6277173;28;20056;-71
2023/03/27 01:48:30;;;;;;;2.58;0.43;;;;;;;2.83;100.00;100866.34;6277182;28;20052;-71
2023/03/27 01:51:35;;;;;;;2.70;0.38;;;;;;;2.81;100.00;100875.88;6277016;28;20445;-71
2023/03/27 01:54:42;;;;;;;1.52;0.60;;;;;;;2.94;100.00;100869.56;6277227;28;20044;-72
2023/03/27 01:57:48;;;;;;;1.50;0.68;;;;;;;2.85;100.00;100877.53;6276667;28;20041;-71
2023/03/27 02:00:54;;;;;;;1.98;0.93;;;;;;;2.94;100.00;100881.72;6276859;28;20079;-71
2023/03/27 02:03:58;;;;;;;2.10;0.40;;;;;;;2.95;100.00;100888.59;6269069;28;20057;-71
2023/03/27 02:07:04;;;;;;;1.13;0.70;;;;;;;2.76;100.00;100888.97;6276377;28;20071;-71
2023/03/27 02:10:11;;;;;;;0.52;0.43;;;;;;;2.79;100.00;100898.44;6276526;28;20053;-71
2023/03/27 02:13:20;;;;;;;2.10;0.43;;;;;;;2.75;100.00;100901.97;6276745;28;20045;-72
2023/03/27 02:16:25;;;;;;;3.13;0.68;;;;;;;2.54;100.00;100900.59;6276442;28;20120;-71
2023/03/27 02:19:33;;;;;;;5.82;0.40;;;;;;;2.66;100.00;100903.00;6276566;28;20076;-71
2023/03/27 02:22:35;;;;;;;3.25;0.55;;;;;;;2.74;100.00;100897.69;6276224;28;20055;-71
2023/03/27 02:25:38;;;;;;;5.82;0.60;;;;;;;2.64;100.00;100903.91;6276323;28;20052;-71
2023/03/27 02:29:09;;;;;;;1.25;0.52;;;;;;;2.67;100.00;100907.28;6276258;28;20126;-71
2023/03/27 02:32:24;;;;;;;4.00;0.52;;;;;;;2.66;100.00;100910.78;6276267;28;20049;-71
2023/03/27 02:35:35;;;;;;;1.23;0.45;;;;;;;2.57;100.00;100900.56;6275779;28;20132;-71
2023/03/27 02:38:41;;;;;;;4.90;0.65;;;;;;;2.54;100.00;100909.28;6276021;28;20448;-71
2023/03/27 02:41:51;;;;;;;3.05;0.82;;;;;;;2.41;100.00;100925.09;6276492;28;20044;-71
2023/03/27 02:44:59;;;;;;;7.75;1.00;;;;;;;2.51;100.00;100926.63;6267921;28;20048;-71
2023/03/27 02:48:05;;;;;;;0.98;0.38;;;;;;;2.53;100.00;100927.44;6275925;28;20052;-71
2023/03/27 02:51:13;;;;;;;3.13;0.70;;;;;;;2.54;100.00;100935.22;6275892;28;20053;-71
2023/03/27 02:54:20;;;;;;;2.88;0.52;;;;;;;2.48;100.00;100931.84;6273865;28;20071;-71
2023/03/27 02:57:26;;;;;;;4.00;0.80;;;;;;;2.50;100.00;100936.16;6274170;28;20048;-71
2023/03/27 03:00:33;;;;;;;5.38;0.55;;;;;;;2.44;100.00;100938.81;6275131;28;20045;-71
2023/03/27 03:03:40;;;;;;;2.47;1.00;;;;;;;2.34;100.00;100936.41;6273542;28;20067;-72
2023/03/27 03:06:42;;;;;;;2.53;0.60;;;;;;;2.29;100.00;100941.69;6274179;28;20132;-71
2023/03/27 03:09:44;;;;;;;1.30;0.30;;;;;;;2.35;100.00;100943.31;6275097;28;20056;-71
2023/03/27 03:12:45;;;;;;;5.25;0.40;;;;;;;2.35;100.00;100949.34;6274816;28;20106;-78
2023/03/27 03:15:48;;;;;;;3.67;0.40;;;;;;;2.19;100.00;100951.34;6275064;28;20045;-77
2023/03/27 03:18:49;;;;;;;3.05;0.70;;;;;;;2.33;100.00;100958.06;6275181;28;20377;-78
2023/03/27 03:21:51;;;;;;;5.18;1.60;;;;;;;2.26;100.00;100960.72;6266522;28;20353;-78
2023/03/27 03:24:52;;;;;;;1.58;0.77;;;;;;;2.14;100.00;100966.13;6274809;28;20045;-77
2023/03/27 03:27:56;;;;;;;7.75;0.95;;;;;;;2.19;100.00;100972.09;6274427;28;20057;-78
2023/03/27 03:31:01;;;;;;;12.73;0.75;;;;;;;2.07;100.00;100974.84;6274735;28;20456;-78
2023/03/27 03:34:03;;;;;;;6.97;0.68;;;;;;;2.25;100.00;100977.16;6274128;28;20049;-78
2023/03/27 03:37:09;;;;;;;2.75;0.77;;;;;;;2.15;100.00;100983.38;6274004;28;20168;-77
2023/03/27 03:40:11;;;;;;;4.70;0.50;;;;;;;2.24;100.00;100988.44;6271721;28;20257;-78
2023/03/27 03:43:12;;;;;;;1.83;0.70;;;;;;;2.16;100.00;100984.22;6274953;28;20084;-77
2023/03/27 03:46:15;;;;;;;5.82;0.70;;;;;;;2.02;100.00;100994.81;6273411;28;20045;-72
2023/03/27 03:49:16;;;;;;;6.13;0.52;;;;;;;2.08;100.00;100997.28;6274610;28;20300;-71
2023/03/27 03:52:18;;;;;;;3.00;1.10;;;;;;;2.17;100.00;100998.91;6274852;28;20349;-71
2023/03/27 03:55:19;;;;;;;4.10;0.95;;;;;;;2.05;100.00;100996.50;6266155;28;20041;-71
2023/03/27 03:58:20;;;;;;;0.15;0.15;;;;;;;2.09;100.00;101001.63;6254168;28;20048;-71
2023/03/27 04:01:24;;;;;;;2.72;0.52;;;;;;;2.01;100.00;100995.69;6254773;28;20041;-71
2023/03/27 04:04:26;;;;;;;13.13;1.27;;;;;;;2.07;100.00;101003.38;6268175;28;20056;-71
2023/03/27 04:07:30;;;;;;;2.55;0.40;;;;;;;2.10;100.00;101016.28;6274314;28;20044;-71
2023/03/27 04:10:31;;;;;;;1.13;0.50;;;;;;;1.95;100.00;101009.59;6264511;28;20132;-71
2023/03/27 04:13:32;;;;;;;6.20;0.95;;;;;;;1.98;100.00;101012.13;6253945;28;20041;-71
2023/03/27 04:16:35;;;;;;;8.30;1.20;;;;;;;2.01;100.00;101016.44;6252223;28;20517;-71
2023/03/27 04:19:36;;;;;;;2.63;1.00;;;;;;;1.94;100.00;101026.00;6252408;28;20044;-71
2023/03/27 04:22:38;;;;;;;2.50;0.60;;;;;;;1.96;100.00;101026.00;6257076;28;20056;-71
2023/03/27 04:25:39;;;;;;;19.77;0.95;;;;;;;1.90;100.00;101032.09;6255438;28;20041;-71
2023/03/27 04:28:41;;;;;;;3.97;0.57;;;;;;;1.89;100.00;101034.72;6252295;28;20122;-71
2023/03/27 04:31:45;;;;;;;2.63;0.60;;;;;;;1.88;100.00;101039.06;6255143;28;20033;-71
2023/03/27 04:34:48;;;;;;;0.38;0.30;;;;;;;1.96;100.00;101046.72;6252431;28;20047;-71
2023/03/27 04:37:49;;;;;;;1.98;0.50;;;;;;;1.95;100.00;101050.19;6252721;28;20639;-71
2023/03/27 04:40:51;;;;;;;4.28;0.63;;;;;;;1.89;100.00;101050.25;6255014;28;20464;-71
2023/03/27 04:43:52;;;;;;;3.30;0.68;;;;;;;1.86;100.00;101043.38;6258056;28;20052;-71
2023/03/27 04:47:00;;;;;;;5.00;0.43;;;;;;;1.87;100.00;101052.88;6252474;28;20049;-71
2023/03/27 04:50:02;;;;;;;3.33;1.23;;;;;;;1.89;100.00;101058.03;6258201;28;20046;-78
2023/03/27 04:53:03;;;;;;;0.98;0.57;;;;;;;1.98;100.00;101069.16;6256688;28;20495;-71
2023/03/27 04:56:06;;;;;;;0.60;0.38;;;;;;;1.95;100.00;101070.91;6271145;28;20044;-71
2023/03/27 04:59:07;;;;;;;5.70;0.55;;;;;;;1.87;100.00;101072.75;6277985;28;20045;-71
2023/03/27 05:02:11;;;;;;;2.08;0.63;;;;;;;1.81;100.00;101086.63;6277943;28;20053;-71
2023/03/27 05:05:13;;;;;;;2.97;0.90;;;;;;;1.85;100.00;101083.13;6277914;28;20048;-71
2023/03/27 05:08:14;;;;;;;4.32;1.35;;;;;;;1.93;100.00;101086.50;6277950;28;20045;-72
2023/03/27 05:11:16;;;;;;;7.82;0.80;;;;;;;1.82;100.00;101090.06;6278226;28;20048;-71
2023/03/27 05:14:18;;;;;;;4.18;0.70;;;;;;;1.81;100.00;101094.41;6277859;28;20048;-71
2023/03/27 05:17:24;;;;;;;1.88;0.82;;;;;;;1.70;100.00;101104.03;6277641;28;20319;-71
2023/03/27 05:20:26;;;;;;;2.05;0.70;;;;;;;1.63;100.00;101107.56;6277819;28;20041;-71
2023/03/27 05:23:27;;;;;;;0.57;0.45;;;;;;;1.66;100.00;101113.56;6277599;28;20040;-71
2023/03/27 05:26:29;;;;;;;3.30;0.68;;;;;;;1.76;100.00;101111.75;6277545;28;20049;-71
2023/03/27 05:29:31;;;;;;;1.15;0.63;;;;;;;1.71;100.00;101116.97;6277160;28;20045;-71
2023/03/27 05:32:34;;;;;;;7.97;1.20;;;;;;;1.81;100.00;101119.47;6277007;28;20465;-71
2023/03/27 05:35:36;;;;;;;6.88;1.13;;;;;;;1.80;100.00;101131.56;6276980;28;20044;-71
2023/03/27 05:38:38;;;;;;;2.85;1.30;;;;;;;1.80;100.00;101128.97;6277081;28;20051;-71
2023/03/27 05:41:40;;;;;;;0.98;0.52;;;;;;;1.70;100.00;101140.31;6276909;28;20048;-71
2023/03/27 05:44:42;;;;;;;0.82;0.50;;;;;;;1.72;100.00;101147.19;6277233;28;20048;-71
2023/03/27 05:47:46;;;;;;;1.30;0.63;;;;;;;1.71;100.00;101150.66;6276952;28;20170;-71
2023/03/27 05:50:48;;;;;;;0.88;0.80;;;;;;;1.78;100.00;101152.31;6277098;28;20437;-71
2023/03/27 05:53:49;;;;;;;2.15;0.90;;;;;;;1.64;100.00;101150.75;6277151;28;20056;-71
2023/03/27 05:56:51;;;;;;;4.97;0.60;;;;;;;1.63;100.00;101154.19;6277188;28;20056;-71
2023/03/27 05:59:52;;;;;;;2.28;0.50;;;;;;;1.57;100.00;101147.34;6268507;28;20049;-71
2023/03/27 06:02:57;;;;;;;1.25;0.55;;;;;;;1.57;100.00;101154.25;6277124;28;20052;-71
2023/03/27 06:05:59;;;;;;;1.33;0.82;;;;;;;1.57;100.00;101159.44;6276489;28;20365;-71
2023/03/27 06:09:01;;;;;;;3.85;0.55;;;;;;;1.55;100.00;101163.78;6276326;28;20055;-71
2023/03/27 06:12:03;;;;;;;2.78;0.30;;;;;;;1.50;100.00;101164.69;6276950;28;20060;-71
2023/03/27 06:15:06;;;;;;;0.43;0.32;;;;;;;1.49;100.00;101159.50;6276629;28;20367;-71
2023/03/27 06:18:09;;;;;;;0.47;0.47;;;;;;;1.49;100.00;101160.34;6276620;28;20059;-72
2023/03/27 06:21:11;;;;;;;10.90;1.23;;;;;;;1.59;100.00;101173.22;6276435;28;20053;-71
2023/03/27 06:24:12;;;;;;;7.63;0.90;;;;;;;1.57;100.00;101175.84;6276478;28;20463;-71
2023/03/27 06:27:14;;;;;;;2.55;0.85;;;;;;;1.66;100.00;101180.06;6275993;28;20059;-71
2023/03/27 06:30:18;;;;;;;2.78;1.17;;;;;;;1.72;100.00;101175.69;6276426;28;20045;-72
2023/03/27 06:33:20;;;;;;;4.13;1.27;;;;;;;1.77;100.00;101176.50;6276234;28;20459;-72
2023/03/27 06:36:22;;;;;;;6.70;1.10;;;;;;;1.90;100.00;101177.22;6275845;28;20041;-71
2023/03/27 06:39:23;;;;;;;9.32;1.05;;;;;;;1.85;100.00;101179.00;6275931;28;20052;-71
2023/03/27 06:42:25;;;;;;;9.55;1.65;;;;;;;1.82;100.00;101176.47;6276205;28;20049;-71
2023/03/27 06:45:28;;;;;;;2.63;0.82;;;;;;;1.92;100.00;101187.59;6275918;28;20128;-71
2023/03/27 06:48:31;;;;;;;2.55;0.93;;;;;;;2.09;100.00;101192.56;6275866;28;20045;-71
2023/03/27 06:51:32;;;;;;;2.10;1.20;;;;;;;2.11;100.00;101194.28;6275821;28;20455;-71
2023/03/27 06:54:34;;;;;;;0.60;0.60;;;;;;;2.18;100.00;101202.84;6275588;28;20049;-71
2023/03/27 06:57:36;;;;;;;3.50;1.40;;;;;;;2.28;100.00;101201.88;6275567;28;20041;-71
2023/03/27 07:00:39;;;;;;;3.80;1.15;;;;;;;2.32;100.00;101202.66;6275681;28;20081;-71
2023/03/27 07:03:42;;;;;;;1.40;0.70;;;;;;;2.33;100.00;101210.44;6275511;28;20384;-71
2023/03/27 07:06:47;;;;;;;4.43;1.05;;;;;;;2.39;100.00;101212.97;6274922;28;20049;-71
2023/03/27 07:09:48;;;;;;;0.45;0.40;;;;;;;2.50;100.00;101218.03;6274737;28;20053;-71
2023/03/27 07:12:53;;;;;;;0.80;0.80;;;;;;;2.55;100.00;101224.03;6275454;28;20053;-71
2023/03/27 07:15:54;;;;;;;1.05;0.70;;;;;;;2.59;100.00;101215.31;6275485;28;20045;-72
2023/03/27 07:18:57;;;;;;;4.90;1.30;;;;;;;2.66;100.00;101229.06;6275352;28;20128;-72
2023/03/27 07:21:58;;;;;;;3.80;0.90;;;;;;;2.65;100.00;101240.31;6275558;28;20049;-71
2023/03/27 07:25:00;;;;;;;1.98;1.27;;;;;;;2.72;100.00;101234.16;6275129;28;20072;-71
2023/03/27 07:28:01;;;;;;;5.10;1.13;;;;;;;2.80;100.00;101240.97;6272935;28;20128;-73
2023/03/27 07:31:07;;;;;;;1.35;0.57;;;;;;;2.94;100.00;101252.91;6260925;28;20045;-71
2023/03/27 07:34:10;;;;;;;1.52;1.00;;;;;;;2.98;100.00;101250.25;6265445;28;20048;-72
2023/03/27 07:37:13;;;;;;;5.13;1.33;;;;;;;3.11;100.00;101260.47;6272607;28;20053;-72
2023/03/27 07:40:20;;;;;;;10.13;1.45;;;;;;;3.22;100.00;101256.81;6273268;28;20070;-71
2023/03/27 07:43:22;;;;;;;5.97;1.10;;;;;;;3.21;100.00;101257.69;6274811;28;20049;-71
2023/03/27 07:46:24;;;;;;;1.77;0.93;;;;;;;3.19;100.00;101262.06;6274525;28;20349;-71
2023/03/27 07:49:27;;;;;;;4.07;0.80;;;;;;;3.25;100.00;101256.78;6270102;28;20059;-71
2023/03/27 07:52:28;;;;;;;2.35;0.98;;;;;;;3.33;100.00;101264.47;6272920;28;20045;-72
2023/03/27 07:55:30;;;;;;;4.40;1.30;;;;;;;3.36;100.00;101272.22;6270549;28;20041;-71
2023/03/27 07:58:31;;;;;;;6.43;1.35;;;;;;;3.38;100.00;101280.84;6273534;28;20048;-72
2023/03/27 08:01:33;;;;;;;8.23;0.88;;;;;;;3.47;100.00;101293.69;6268175;28;20356;-71
2023/03/27 08:04:36;;;;;;;0.80;0.50;;;;;;;3.53;100.00;101278.00;6270733;28;20199;-71
2023/03/27 08:07:39;;;;;;;2.50;1.10;;;;;;;3.71;100.00;101283.78;6269319;28;20052;-72
2023/03/27 08:10:41;;;;;;;3.03;0.68;;;;;;;3.62;100.00;101286.53;6268002;28;20049;-71
2023/03/27 08:13:42;;;;;;;1.95;0.75;;;;;;;3.64;100.00;101290.84;6274459;28;20136;-71
2023/03/27 08:16:43;;;;;;;4.18;1.05;;;;;;;3.71;100.00;101292.44;6274367;28;20464;-71
2023/03/27 08:19:46;;;;;;;1.60;0.65;;;;;;;3.83;100.00;101287.94;6274353;28;20041;-71
2023/03/27 08:22:47;;;;;;;1.17;0.50;;;;;;;3.87;100.00;101289.59;6278038;28;20053;-72
2023/03/27 08:25:50;;;;;;;5.43;0.90;;;;;;;3.91;100.00;101280.88;6269998;28;20051;-72
2023/03/27 08:28:52;;;;;;;3.95;0.90;;;;;;;3.81;100.00;101290.53;6271646;28;20132;-71
2023/03/27 08:31:54;;;;;;;4.25;0.80;;;;;;;3.80;100.00;101292.28;6264158;28;20053;-72
2023/03/27 08:34:56;;;;;;;2.15;1.25;;;;;;;3.94;100.00;101294.63;6279280;28;20456;-72
2023/03/27 08:37:58;;;;;;;2.60;0.68;;;;;;;4.11;100.00;101288.31;6270543;28;20045;-72
2023/03/27 08:41:02;;;;;;;5.68;1.20;;;;;;;4.16;100.00;101282.13;6269933;28;20053;-71
2023/03/27 08:44:08;;;;;;;1.75;0.60;;;;;;;4.24;100.00;101282.00;6278721;28;20459;-72
2023/03/27 08:47:15;;;;;;;0.68;0.32;;;;;;;4.31;100.00;101292.25;6272938;28;20297;-72
2023/03/27 08:50:31;;;;;;;1.75;0.70;;;;;;;4.39;100.00;101299.06;6278315;28;20412;-71
2023/03/27 08:53:39;;;;;;;3.97;0.77;;;;;;;4.41;100.00;101305.09;6278681;28;20049;-70
2023/03/27 08:56:41;;;;;;;1.77;0.70;;;;;;;4.43;100.00;101304.16;6278450;28;20048;-71
2023/03/27 08:59:42;;;;;;;10.63;1.15;;;;;;;4.54;100.00;101294.44;6278315;28;20064;-71
2023/03/27 09:02:50;;;;;;;1.15;0.50;;;;;;;4.65;100.00;101303.75;6278213;28;20350;-70
2023/03/27 09:05:59;;;;;;;2.60;0.40;;;;;;;4.74;100.00;101306.19;6269306;28;20049;-71
2023/03/27 09:09:06;;;;;;;4.90;1.42;;;;;;;4.82;100.00;101309.50;6263886;28;20042;-71
2023/03/27 09:12:22;;;;;;;5.38;0.70;;;;;;;4.95;100.00;101310.94;6269976;28;20059;-71
2023/03/27 09:15:28;;;;;;;0.88;0.63;;;;;;;4.79;100.00;101312.16;6269296;28;20354;-70
2023/03/27 09:18:35;;;;;;;2.65;0.82;;;;;;;4.80;100.00;101306.03;6269165;28;20057;-71
2023/03/27 09:21:44;;;;;;;2.40;0.65;;;;;;;4.81;100.00;101312.97;6272252;28;20052;-71
2023/03/27 09:24:48;;;;;;;0.95;0.70;;;;;;;4.79;100.00;101319.97;6274313;28;20127;-71
2023/03/27 09:27:51;;;;;;;2.47;0.68;;;;;;;4.76;100.00;101314.81;6269253;28;20045;-71
2023/03/27 09:30:53;;;;;;;1.77;0.43;;;;;;;4.84;100.00;101318.13;6266174;28;20049;-72
2023/03/27 09:33:55;;;;;;;2.10;0.75;;;;;;;4.94;100.00;101318.78;6271765;28;20049;-71
2023/03/27 09:36:59;;;;;;;4.25;1.00;;;;;;;5.07;100.00;101333.25;6274240;28;20483;-71
2023/03/27 09:40:01;;;;;;;3.97;0.50;;;;;;;5.10;100.00;101333.22;6269339;28;20052;-72
2023/03/27 09:43:08;;;;;;;1.25;0.50;;;;;;;5.24;100.00;101319.88;6268032;28;20052;-72
2023/03/27 09:46:12;;;;;;;4.57;0.40;;;;;;;5.29;100.00;101326.69;6275009;28;20060;-71
2023/03/27 09:49:17;;;;;;;1.80;0.40;;;;;;;5.15;95.66;101323.53;6255410;28;20045;-71
2023/03/27 09:52:35;;;;;;;1.25;0.17;;;;;;;5.15;96.10;101327.91;6267674;28;20425;-72
2023/03/27 09:55:49;;;;;;;1.55;0.50;;;;;;;5.32;97.04;101328.38;6265950;28;20055;-72
2023/03/27 09:58:50;;;;;;;1.88;0.40;;;;;;;5.60;91.44;101318.19;6268733;28;20053;-71
2023/03/27 10:01:55;;;;;;;4.32;1.25;;;;;;;5.74;91.40;101317.84;6268553;28;20053;-71
2023/03/27 10:04:58;;;;;;;1.23;0.28;;;;;;;5.78;90.30;101332.53;6254908;28;20052;-71
2023/03/27 10:08:01;;;;;;;1.40;0.25;;;;;;;5.82;87.31;101373.31;6267020;28;20132;-71
2023/03/27 10:11:06;;;;;;;3.25;0.40;;;;;;;5.13;100.00;101379.16;6276531;28;20056;-71
2023/03/27 10:14:16;;;;;;;1.30;0.30;;;;;;;4.53;100.00;101388.97;6276559;28;20053;-71
2023/03/27 10:17:24;;;;;;;1.67;0.40;;;;;;;4.18;100.00;101368.81;6274850;28;20045;-71
2023/03/27 10:20:25;;;;;;;0.40;0.30;;;;;;;4.04;100.00;101375.94;6276106;28;20056;-70
2023/03/27 10:23:39;;;;;;;11.20;0.38;;;;;;;4.06;100.00;101382.88;6276458;28;20076;-71
2023/03/27 10:26:41;;;;;;;1.85;0.30;;;;;;;4.12;100.00;101383.63;6275904;28;20049;-70
2023/03/27 10:29:42;;;;;;;2.28;0.52;;;;;;;4.02;100.00;101388.13;6276197;28;20047;-71
2023/03/27 10:32:46;;;;;;;3.78;0.65;;;;;;;4.23;100.00;101390.41;6275202;28;20075;-72
2023/03/27 10:35:48;;;;;;;2.42;0.30;;;;;;;4.48;100.00;101398.63;6275178;28;20052;-70
2023/03/27 10:38:56;;;;;;;0.25;0.10;;;;;;;4.41;100.00;101399.63;6271832;28;20057;-70
2023/03/27 10:42:01;;;;;;;3.15;0.22;;;;;;;4.18;100.00;101415.63;6274266;28;20132;-71
2023/03/27 10:45:03;;;;;;;2.20;0.32;;;;;;;4.03;100.00;101414.09;6255340;28;20053;-71
2023/03/27 10:48:07;;;;;;;0.63;0.10;;;;;;;3.77;100.00;101418.84;6250818;28;20069;-70
2023/03/27 10:51:31;;;;;;;0.57;0.22;;;;;;;3.73;100.00;101425.84;6261459;28;20048;-70
2023/03/27 10:54:45;;;;;;;1.17;0.55;;;;;;;3.72;100.00;101434.50;6275797;28;20174;-70
2023/03/27 10:57:52;;;;;;;1.08;0.22;;;;;;;3.68;100.00;101461.44;6273039;28;20131;-69
2023/03/27 11:01:00;;;;;;;2.10;0.45;;;;;;;3.52;100.00;101455.56;6266791;28;20103;-77
2023/03/27 11:04:08;;;;;;;3.28;0.28;;;;;;;3.09;100.00;101473.41;6261299;28;20056;-70
2023/03/27 11:07:16;;;;;;;1.05;0.35;;;;;;;2.47;100.00;101444.59;6277072;28;20052;-71
2023/03/27 11:10:23;;;;;;;0.40;0.30;;;;;;;2.74;100.00;101427.91;6268830;28;20046;-70
2023/03/27 11:13:30;;;;;;;0.20;0.20;;;;;;;2.98;100.00;101415.53;6269781;28;20049;-70
2023/03/27 11:16:37;;;;;;;0.40;0.25;;;;;;;3.20;100.00;101417.00;6274896;28;20389;-70
2023/03/27 11:19:43;;;;;;;0.45;0.30;;;;;;;3.44;100.00;101408.03;6275410;28;20045;-71
2023/03/27 11:22:51;;;;;;;9.43;0.30;;;;;;;3.90;100.00;101407.38;6275095;28;20067;-70
2023/03/27 11:25:54;;;;;;;0.22;0.22;;;;;;;4.23;100.00;101413.81;6275042;28;20357;-70
2023/03/27 11:29:02;;;;;;;0.30;0.30;;;;;;;4.41;100.00;101404.84;6267090;28;20048;-70
2023/03/27 11:32:15;;;;;;;0.20;0.20;;;;;;;4.78;100.00;101419.78;6275153;28;20051;-70
2023/03/27 11:35:22;;;;;;;0.82;0.32;;;;;;;5.06;100.00;101410.56;6274584;28;20056;-70
2023/03/27 11:38:28;;;;;;;0.65;0.10;;;;;;;5.31;100.00;101408.31;6275043;28;20171;-70
2023/03/27 11:41:30;;;;;;;2.38;0.20;;;;;;;5.33;100.00;101414.34;6271689;28;20052;-70
2023/03/27 11:44:32;;;;;;;1.75;0.40;;;;;;;5.38;100.00;101413.41;6275159;28;20432;-71
2023/03/27 11:47:47;;;;;;;1.65;0.40;;;;;;;5.29;100.00;101423.13;6274361;28;20041;-71
2023/03/27 11:50:56;;;;;;;0.43;0.32;;;;;;;5.32;100.00;101419.59;6274853;28;20048;-70
2023/03/27 11:54:10;;;;;;;0.70;0.30;;;;;;;5.18;100.00;101434.63;6274873;28;20730;-71
2023/03/27 11:57:21;;;;;;;5.28;0.75;;;;;;;5.09;100.00;101457.41;6277674;28;20064;-71
2023/03/27 12:00:31;;;;;;;1.20;0.30;;;;;;;4.65;100.00;101479.03;6279738;28;20514;-70
2023/03/27 12:04:11;;;;;;;0.90;0.22;;;;;;;4.47;100.00;101461.97;6279584;28;20131;-71
2023/03/27 12:07:24;;;;;;;1.27;0.40;;;;;;;4.29;100.00;101470.09;6279360;28;20052;-70
2023/03/27 12:10:32;;;;;;;0.40;0.30;;;;;;;4.13;100.00;101473.78;6279444;28;20052;-70
2023/03/27 12:13:48;;;;;;;0.00;0.00;;;;;;;4.03;100.00;101471.31;6279683;28;20116;-71
2023/03/27 12:17:03;;;;;;;0.43;0.20;;;;;;;4.47;100.00;101471.53;6279062;28;20361;-71
2023/03/27 12:20:20;;;;;;;0.28;0.28;;;;;;;4.94;100.00;101469.84;6279317;28;20072;-70
2023/03/27 12:23:31;;;;;;;0.20;0.20;;;;;;;5.21;100.00;101456.28;6278996;28;20051;-71
2023/03/27 12:26:51;;;;;;;0.30;0.30;;;;;;;5.54;100.00;101453.88;6271598;28;20056;-71
2023/03/27 12:30:17;;;;;;;3.08;0.85;;;;;;;5.99;100.00;101456.38;6270940;28;20053;-71
2023/03/27 12:33:41;;;;;;;2.55;0.30;;;;;;;6.13;100.00;101456.06;6274935;28;20041;-72
2023/03/27 12:36:47;;;;;;;1.27;0.55;;;;;;;6.32;100.00;101465.19;6275187;28;20048;-71
2023/03/27 12:39:50;;;;;;;0.13;0.00;;;;;;;6.41;100.00;101451.91;6277797;28;20063;-71
2023/03/27 12:42:54;;;;;;;0.65;0.47;;;;;;;6.41;100.00;101449.31;6271696;28;20056;-71
2023/03/27 12:46:14;;;;;;;0.43;0.20;;;;;;;6.79;100.00;101442.25;6262994;28;20056;-72
2023/03/27 12:49:38;;;;;;;5.35;0.73;;;;;;;6.90;97.81;101441.94;6265073;28;20052;-71
2023/03/27 12:52:44;;;;;;;1.77;0.40;;;;;;;7.11;100.00;101426.53;6266499;28;20342;-71
2023/03/27 12:55:45;;;;;;;3.40;0.77;;;;;;;7.37;95.01;101431.03;6276370;28;20041;-72
2023/03/27 12:58:50;;;;;;;0.85;0.38;;;;;;;7.52;96.93;101428.88;6273903;28;20318;-71
2023/03/27 13:02:18;;;;;;;0.88;0.30;;;;;;;7.50;87.77;101428.91;6258970;28;20124;-71
2023/03/27 13:05:48;;;;;;;1.20;0.45;;;;;;;7.63;92.52;101422.41;6260451;28;20060;-71
2023/03/27 13:09:04;;;;;;;;;;;;;;;7.17;94.69;101428.13;6268464;28;20045;-72
2023/03/27 13:12:27;;;;;;;2.33;0.45;;;;;;;6.57;94.38;101462.81;6271880;28;20325;-71
2023/03/27 13:15:39;;;;;;;0.73;0.20;;;;;;;5.41;100.00;101496.75;6271390;28;20057;-70
2023/03/27 13:18:58;;;;;;;0.45;0.45;;;;;;;4.68;100.00;101481.59;6264956;28;20053;-70
2023/03/27 13:22:16;;;;;;;1.08;0.22;;;;;;;4.52;100.00;101470.56;6268634;28;20439;-70
2023/03/27 13:25:30;;;;;;;0.20;0.20;;;;;;;4.49;100.00;101473.19;6273477;28;20123;-71
2023/03/27 13:28:36;;;;;;;0.20;0.13;;;;;;;4.64;100.00;101471.25;6265126;28;20049;-70
2023/03/27 13:32:04;;;;;;;0.30;0.30;;;;;;;4.66;100.00;101465.13;6269984;28;20461;-70
2023/03/27 13:35:31;;;;;;;0.20;0.20;;;;;;;4.50;100.00;101459.34;6283098;28;20045;-70
2023/03/27 13:38:45;;;;;;;0.65;0.28;;;;;;;4.82;100.00;101466.56;6274968;28;20077;-70
2023/03/27 13:41:54;;;;;;;0.45;0.35;;;;;;;4.92;100.00;101474.22;6280567;28;20049;-70
2023/03/27 13:45:02;;;;;;;0.50;0.30;;;;;;;4.73;100.00;101474.56;6271970;28;20053;-70
2023/03/27 13:48:24;;;;;;;0.38;0.38;;;;;;;5.12;100.00;101484.25;6252629;28;20049;-71
2023/03/27 13:51:43;;;;;;;4.55;0.43;;;;;;;5.54;100.00;101478.22;6260904;28;20041;-71
2023/03/27 13:55:15;;;;;;;1.92;0.43;;;;;;;5.98;100.00;101471.19;6267399;28;20067;-71
2023/03/27 13:58:41;;;;;;;0.80;0.22;;;;;;;6.72;100.00;101477.25;6251508;28;20425;-71
2023/03/27 14:01:56;;;;;;;3.13;0.47;;;;;;;6.90;99.93;101481.13;6266761;28;20464;-71
2023/03/27 14:05:19;;;;;;;0.40;0.22;;;;;;;7.10;98.47;101479.72;6276740;28;20135;-71
2023/03/27 14:08:34;;;;;;;4.07;0.50;;;;;;;6.87;100.00;101495.16;6276002;28;20044;-71
2023/03/27 14:12:01;;;;;;;0.55;0.30;;;;;;;6.16;100.00;101498.63;6262301;28;20120;-71
2023/03/27 14:15:26;;;;;;;0.10;0.10;;;;;;;5.75;100.00;101495.13;6260112;28;20045;-71
2023/03/27 14:18:48;;;;;;;0.15;0.15;;;;;;;5.22;100.00;101498.81;6267793;28;20132;-71
2023/03/27 14:21:54;;;;;;;0.47;0.30;;;;;;;5.25;100.00;101490.97;6267144;28;20055;-71
2023/03/27 14:25:01;;;;;;;4.55;0.63;;;;;;;5.43;100.00;101494.94;6252909;28;20350;-71
2023/03/27 14:28:02;;;;;;;3.15;0.20;;;;;;;6.13;100.00;101492.59;6265699;28;20327;-71
2023/03/27 14:31:07;;;;;;;0.80;0.20;;;;;;;6.55;100.00;101506.41;6266753;28;20045;-71